sensor_id;sensor_type;location;lat;lon;timestamp;P1;durP1;ratioP1;P2;durP2;ratioP2
68484;SDS011;55472;50.060;21.960;2023-04-25T00:00:31;8.68;;;4.30;;
68484;SDS011;55472;50.060;21.960;2023-04-25T00:03:17;8.20;;;4.03;;
68484;SDS011;55472;50.060;21.960;2023-04-25T00:05:43;8.73;;;4.68;;
68484;SDS011;55472;50.060;21.960;2023-04-25T00:08:10;11.05;;;4.57;;
68484;SDS011;55472;50.060;21.960;2023-04-25T00:10:36;8.20;;;4.77;;
68484;SDS011;55472;50.060;21.960;2023-04-25T00:13:02;9.63;;;5.38;;
68484;SDS011;55472;50.060;21.960;2023-04-25T00:15:29;10.82;;;5.40;;
68484;SDS011;55472;50.060;21.960;2023-04-25T00:17:57;13.48;;;6.95;;
68484;SDS011;55472;50.060;21.960;2023-04-25T00:20:24;14.95;;;8.00;;
68484;SDS011;55472;50.060;21.960;2023-04-25T00:22:50;13.17;;;7.57;;
68484;SDS011;55472;50.060;21.960;2023-04-25T00:25:18;13.60;;;7.70;;
68484;SDS011;55472;50.060;21.960;2023-04-25T00:27:44;12.07;;;6.47;;
68484;SDS011;55472;50.060;21.960;2023-04-25T00:30:11;9.63;;;5.50;;
68484;SDS011;55472;50.060;21.960;2023-04-25T00:32:38;8.75;;;4.88;;
68484;SDS011;55472;50.060;21.960;2023-04-25T00:35:04;11.10;;;5.73;;
68484;SDS011;55472;50.060;21.960;2023-04-25T00:37:31;8.68;;;5.03;;
68484;SDS011;55472;50.060;21.960;2023-04-25T00:39:57;9.27;;;4.65;;
68484;SDS011;55472;50.060;21.960;2023-04-25T00:42:24;9.07;;;4.70;;
68484;SDS011;55472;50.060;21.960;2023-04-25T00:44:51;9.02;;;4.63;;
68484;SDS011;55472;50.060;21.960;2023-04-25T00:47:18;7.93;;;4.37;;
68484;SDS011;55472;50.060;21.960;2023-04-25T00:49:44;8.45;;;4.55;;
68484;SDS011;55472;50.060;21.960;2023-04-25T00:52:10;9.02;;;5.15;;
68484;SDS011;55472;50.060;21.960;2023-04-25T00:54:37;8.55;;;4.72;;
68484;SDS011;55472;50.060;21.960;2023-04-25T00:57:03;10.13;;;5.38;;
68484;SDS011;55472;50.060;21.960;2023-04-25T00:59:30;11.17;;;5.13;;
68484;SDS011;55472;50.060;21.960;2023-04-25T01:01:56;11.88;;;5.72;;
68484;SDS011;55472;50.060;21.960;2023-04-25T01:04:23;10.07;;;5.32;;
68484;SDS011;55472;50.060;21.960;2023-04-25T01:06:49;11.02;;;6.35;;
68484;SDS011;55472;50.060;21.960;2023-04-25T01:09:17;11.68;;;6.95;;
68484;SDS011;55472;50.060;21.960;2023-04-25T01:11:44;14.23;;;7.10;;
68484;SDS011;55472;50.060;21.960;2023-04-25T01:14:11;12.73;;;6.88;;
68484;SDS011;55472;50.060;21.960;2023-04-25T01:16:36;12.40;;;7.15;;
68484;SDS011;55472;50.060;21.960;2023-04-25T01:19:05;12.60;;;7.28;;
68484;SDS011;55472;50.060;21.960;2023-04-25T01:21:38;13.35;;;6.53;;
68484;SDS011;55472;50.060;21.960;2023-04-25T01:24:05;10.80;;;6.47;;
68484;SDS011;55472;50.060;21.960;2023-04-25T01:26:32;11.82;;;6.55;;
68484;SDS011;55472;50.060;21.960;2023-04-25T01:28:59;12.27;;;6.72;;
68484;SDS011;55472;50.060;21.960;2023-04-25T01:31:25;13.07;;;7.60;;
68484;SDS011;55472;50.060;21.960;2023-04-25T01:33:53;15.85;;;7.93;;
68484;SDS011;55472;50.060;21.960;2023-04-25T01:36:19;14.33;;;8.17;;
68484;SDS011;55472;50.060;21.960;2023-04-25T01:38:47;13.07;;;7.68;;
68484;SDS011;55472;50.060;21.960;2023-04-25T01:41:13;12.73;;;7.40;;
68484;SDS011;55472;50.060;21.960;2023-04-25T01:43:40;12.60;;;7.30;;
68484;SDS011;55472;50.060;21.960;2023-04-25T01:46:06;13.17;;;6.80;;
68484;SDS011;55472;50.060;21.960;2023-04-25T01:48:32;11.70;;;6.63;;
68484;SDS011;55472;50.060;21.960;2023-04-25T01:50:58;14.85;;;7.75;;
68484;SDS011;55472;50.060;21.960;2023-04-25T01:53:25;12.10;;;6.90;;
68484;SDS011;55472;50.060;21.960;2023-04-25T01:55:51;13.45;;;7.22;;
68484;SDS011;55472;50.060;21.960;2023-04-25T01:58:17;14.47;;;7.80;;
68484;SDS011;55472;50.060;21.960;2023-04-25T02:00:43;15.50;;;7.18;;
68484;SDS011;55472;50.060;21.960;2023-04-25T02:03:10;13.43;;;7.95;;
68484;SDS011;55472;50.060;21.960;2023-04-25T02:05:36;12.13;;;7.03;;
68484;SDS011;55472;50.060;21.960;2023-04-25T02:08:04;12.30;;;6.97;;
68484;SDS011;55472;50.060;21.960;2023-04-25T02:10:32;11.33;;;6.40;;
68484;SDS011;55472;50.060;21.960;2023-04-25T02:13:00;11.52;;;5.78;;
68484;SDS011;55472;50.060;21.960;2023-04-25T02:15:26;9.85;;;5.97;;
68484;SDS011;55472;50.060;21.960;2023-04-25T02:17:52;10.98;;;5.50;;
68484;SDS011;55472;50.060;21.960;2023-04-25T02:20:22;9.30;;;5.25;;
68484;SDS011;55472;50.060;21.960;2023-04-25T02:22:50;10.90;;;5.33;;
68484;SDS011;55472;50.060;21.960;2023-04-25T02:25:17;10.50;;;5.10;;
68484;SDS011;55472;50.060;21.960;2023-04-25T02:27:45;9.00;;;4.82;;
68484;SDS011;55472;50.060;21.960;2023-04-25T02:30:12;8.88;;;5.05;;
68484;SDS011;55472;50.060;21.960;2023-04-25T02:32:39;8.30;;;4.47;;
68484;SDS011;55472;50.060;21.960;2023-04-25T02:35:06;9.83;;;4.80;;
68484;SDS011;55472;50.060;21.960;2023-04-25T02:37:33;11.10;;;4.80;;
68484;SDS011;55472;50.060;21.960;2023-04-25T02:40:01;9.77;;;5.05;;
68484;SDS011;55472;50.060;21.960;2023-04-25T02:42:29;9.32;;;4.95;;
68484;SDS011;55472;50.060;21.960;2023-04-25T02:44:55;10.80;;;5.03;;
68484;SDS011;55472;50.060;21.960;2023-04-25T02:47:22;11.13;;;5.10;;
68484;SDS011;55472;50.060;21.960;2023-04-25T02:49:48;9.90;;;4.53;;
68484;SDS011;55472;50.060;21.960;2023-04-25T02:52:14;9.30;;;4.90;;
68484;SDS011;55472;50.060;21.960;2023-04-25T02:54:40;9.77;;;5.13;;
68484;SDS011;55472;50.060;21.960;2023-04-25T02:57:07;8.82;;;5.15;;
68484;SDS011;55472;50.060;21.960;2023-04-25T02:59:33;9.97;;;5.17;;
68484;SDS011;55472;50.060;21.960;2023-04-25T03:01:59;9.18;;;5.15;;
68484;SDS011;55472;50.060;21.960;2023-04-25T03:04:26;10.45;;;5.65;;
68484;SDS011;55472;50.060;21.960;2023-04-25T03:06:52;9.63;;;5.32;;
68484;SDS011;55472;50.060;21.960;2023-04-25T03:09:19;9.93;;;5.05;;
68484;SDS011;55472;50.060;21.960;2023-04-25T03:11:45;10.13;;;5.20;;
68484;SDS011;55472;50.060;21.960;2023-04-25T03:14:12;9.95;;;5.65;;
68484;SDS011;55472;50.060;21.960;2023-04-25T03:16:38;10.43;;;5.70;;
68484;SDS011;55472;50.060;21.960;2023-04-25T03:19:05;8.82;;;5.43;;
68484;SDS011;55472;50.060;21.960;2023-04-25T03:21:32;10.73;;;5.68;;
68484;SDS011;55472;50.060;21.960;2023-04-25T03:24:02;10.70;;;5.50;;
68484;SDS011;55472;50.060;21.960;2023-04-25T03:26:30;10.10;;;5.38;;
68484;SDS011;55472;50.060;21.960;2023-04-25T03:28:56;10.50;;;5.57;;
68484;SDS011;55472;50.060;21.960;2023-04-25T03:31:22;10.18;;;5.85;;
68484;SDS011;55472;50.060;21.960;2023-04-25T03:33:48;10.40;;;5.75;;
68484;SDS011;55472;50.060;21.960;2023-04-25T03:36:14;10.30;;;5.53;;
68484;SDS011;55472;50.060;21.960;2023-04-25T03:38:40;12.65;;;6.07;;
68484;SDS011;55472;50.060;21.960;2023-04-25T03:41:07;11.07;;;6.50;;
68484;SDS011;55472;50.060;21.960;2023-04-25T03:43:33;9.82;;;5.47;;
68484;SDS011;55472;50.060;21.960;2023-04-25T03:46:00;9.60;;;5.45;;
68484;SDS011;55472;50.060;21.960;2023-04-25T03:48:26;10.60;;;6.07;;
68484;SDS011;55472;50.060;21.960;2023-04-25T03:50:53;9.85;;;5.30;;
68484;SDS011;55472;50.060;21.960;2023-04-25T03:53:20;9.93;;;5.55;;
68484;SDS011;55472;50.060;21.960;2023-04-25T03:55:46;11.05;;;5.90;;
68484;SDS011;55472;50.060;21.960;2023-04-25T03:58:12;10.88;;;5.70;;
68484;SDS011;55472;50.060;21.960;2023-04-25T04:00:38;14.07;;;6.43;;
68484;SDS011;55472;50.060;21.960;2023-04-25T04:03:04;12.10;;;6.07;;
68484;SDS011;55472;50.060;21.960;2023-04-25T04:05:30;11.73;;;6.55;;
68484;SDS011;55472;50.060;21.960;2023-04-25T04:07:57;11.30;;;6.53;;
68484;SDS011;55472;50.060;21.960;2023-04-25T04:10:24;10.93;;;6.60;;
68484;SDS011;55472;50.060;21.960;2023-04-25T04:12:51;13.33;;;6.27;;
68484;SDS011;55472;50.060;21.960;2023-04-25T04:15:17;15.18;;;7.40;;
68484;SDS011;55472;50.060;21.960;2023-04-25T04:17:43;12.50;;;6.38;;
68484;SDS011;55472;50.060;21.960;2023-04-25T04:20:10;13.93;;;7.75;;
68484;SDS011;55472;50.060;21.960;2023-04-25T04:22:36;12.48;;;6.95;;
68484;SDS011;55472;50.060;21.960;2023-04-25T04:25:02;13.33;;;6.90;;
68484;SDS011;55472;50.060;21.960;2023-04-25T04:27:31;13.45;;;7.07;;
68484;SDS011;55472;50.060;21.960;2023-04-25T04:29:57;13.70;;;6.97;;
68484;SDS011;55472;50.060;21.960;2023-04-25T04:32:23;12.63;;;7.10;;
68484;SDS011;55472;50.060;21.960;2023-04-25T04:34:50;12.60;;;6.95;;
68484;SDS011;55472;50.060;21.960;2023-04-25T04:37:17;10.97;;;6.27;;
68484;SDS011;55472;50.060;21.960;2023-04-25T04:39:43;12.10;;;6.65;;
68484;SDS011;55472;50.060;21.960;2023-04-25T04:42:10;11.93;;;6.20;;
68484;SDS011;55472;50.060;21.960;2023-04-25T04:44:37;12.38;;;6.75;;
68484;SDS011;55472;50.060;21.960;2023-04-25T04:47:04;11.20;;;6.15;;
68484;SDS011;55472;50.060;21.960;2023-04-25T04:49:32;10.37;;;5.90;;
68484;SDS011;55472;50.060;21.960;2023-04-25T04:51:58;14.50;;;7.50;;
68484;SDS011;55472;50.060;21.960;2023-04-25T04:54:26;13.07;;;6.60;;
68484;SDS011;55472;50.060;21.960;2023-04-25T04:56:52;12.25;;;6.32;;
68484;SDS011;55472;50.060;21.960;2023-04-25T04:59:18;12.27;;;6.10;;
68484;SDS011;55472;50.060;21.960;2023-04-25T05:01:44;12.90;;;6.37;;
68484;SDS011;55472;50.060;21.960;2023-04-25T05:04:12;11.90;;;6.35;;
68484;SDS011;55472;50.060;21.960;2023-04-25T05:06:38;12.02;;;5.97;;
68484;SDS011;55472;50.060;21.960;2023-04-25T05:09:04;10.82;;;6.05;;
68484;SDS011;55472;50.060;21.960;2023-04-25T05:11:30;10.23;;;5.93;;
68484;SDS011;55472;50.060;21.960;2023-04-25T05:13:57;11.33;;;5.93;;
68484;SDS011;55472;50.060;21.960;2023-04-25T05:16:23;24.95;;;13.05;;
68484;SDS011;55472;50.060;21.960;2023-04-25T05:18:49;20.60;;;9.43;;
68484;SDS011;55472;50.060;21.960;2023-04-25T05:21:15;13.52;;;6.47;;
68484;SDS011;55472;50.060;21.960;2023-04-25T05:23:41;10.85;;;6.28;;
68484;SDS011;55472;50.060;21.960;2023-04-25T05:26:07;11.63;;;6.40;;
68484;SDS011;55472;50.060;21.960;2023-04-25T05:28:39;11.55;;;6.25;;
68484;SDS011;55472;50.060;21.960;2023-04-25T05:31:06;11.48;;;6.75;;
68484;SDS011;55472;50.060;21.960;2023-04-25T05:33:33;12.88;;;6.90;;
68484;SDS011;55472;50.060;21.960;2023-04-25T05:35:59;15.87;;;8.77;;
68484;SDS011;55472;50.060;21.960;2023-04-25T05:38:26;12.80;;;6.93;;
68484;SDS011;55472;50.060;21.960;2023-04-25T05:40:52;15.63;;;7.63;;
68484;SDS011;55472;50.060;21.960;2023-04-25T05:43:18;14.35;;;7.90;;
68484;SDS011;55472;50.060;21.960;2023-04-25T05:45:44;17.42;;;8.90;;
68484;SDS011;55472;50.060;21.960;2023-04-25T05:48:10;15.93;;;8.40;;
68484;SDS011;55472;50.060;21.960;2023-04-25T05:50:36;15.90;;;8.40;;
68484;SDS011;55472;50.060;21.960;2023-04-25T05:53:03;16.10;;;8.45;;
68484;SDS011;55472;50.060;21.960;2023-04-25T05:55:31;13.57;;;7.63;;
68484;SDS011;55472;50.060;21.960;2023-04-25T05:57:57;15.57;;;8.63;;
68484;SDS011;55472;50.060;21.960;2023-04-25T06:00:23;21.40;;;10.83;;
68484;SDS011;55472;50.060;21.960;2023-04-25T06:02:49;24.00;;;12.55;;
68484;SDS011;55472;50.060;21.960;2023-04-25T06:05:15;16.85;;;9.20;;
68484;SDS011;55472;50.060;21.960;2023-04-25T06:07:42;18.50;;;9.05;;
68484;SDS011;55472;50.060;21.960;2023-04-25T06:10:08;18.75;;;9.88;;
68484;SDS011;55472;50.060;21.960;2023-04-25T06:12:35;19.47;;;10.47;;
68484;SDS011;55472;50.060;21.960;2023-04-25T06:15:01;19.77;;;10.68;;
68484;SDS011;55472;50.060;21.960;2023-04-25T06:17:27;21.25;;;11.23;;
68484;SDS011;55472;50.060;21.960;2023-04-25T06:19:53;27.33;;;15.32;;
68484;SDS011;55472;50.060;21.960;2023-04-25T06:22:19;20.97;;;11.43;;
68484;SDS011;55472;50.060;21.960;2023-04-25T06:24:46;23.40;;;12.05;;
68484;SDS011;55472;50.060;21.960;2023-04-25T06:27:12;24.55;;;13.52;;
68484;SDS011;55472;50.060;21.960;2023-04-25T06:29:38;25.88;;;13.00;;
68484;SDS011;55472;50.060;21.960;2023-04-25T06:32:05;29.38;;;14.48;;
68484;SDS011;55472;50.060;21.960;2023-04-25T06:34:31;28.83;;;15.33;;
68484;SDS011;55472;50.060;21.960;2023-04-25T06:36:57;26.58;;;14.85;;
68484;SDS011;55472;50.060;21.960;2023-04-25T06:39:23;26.38;;;15.00;;
68484;SDS011;55472;50.060;21.960;2023-04-25T06:41:50;31.52;;;15.55;;
68484;SDS011;55472;50.060;21.960;2023-04-25T06:44:16;27.40;;;15.13;;
68484;SDS011;55472;50.060;21.960;2023-04-25T06:46:43;30.00;;;15.90;;
68484;SDS011;55472;50.060;21.960;2023-04-25T06:49:09;27.90;;;15.18;;
68484;SDS011;55472;50.060;21.960;2023-04-25T06:51:35;28.13;;;14.07;;
68484;SDS011;55472;50.060;21.960;2023-04-25T06:54:01;23.92;;;12.55;;
68484;SDS011;55472;50.060;21.960;2023-04-25T06:56:29;21.25;;;12.50;;
68484;SDS011;55472;50.060;21.960;2023-04-25T06:58:56;22.03;;;11.00;;
68484;SDS011;55472;50.060;21.960;2023-04-25T07:01:22;17.90;;;10.63;;
68484;SDS011;55472;50.060;21.960;2023-04-25T07:03:48;21.63;;;11.85;;
68484;SDS011;55472;50.060;21.960;2023-04-25T07:06:14;18.65;;;11.00;;
68484;SDS011;55472;50.060;21.960;2023-04-25T07:08:40;17.27;;;9.02;;
68484;SDS011;55472;50.060;21.960;2023-04-25T07:11:06;12.17;;;6.40;;
68484;SDS011;55472;50.060;21.960;2023-04-25T07:13:32;9.45;;;5.30;;
68484;SDS011;55472;50.060;21.960;2023-04-25T07:15:59;8.80;;;5.18;;
68484;SDS011;55472;50.060;21.960;2023-04-25T07:18:25;9.63;;;5.10;;
68484;SDS011;55472;50.060;21.960;2023-04-25T07:20:51;9.25;;;5.18;;
68484;SDS011;55472;50.060;21.960;2023-04-25T07:23:17;9.90;;;4.60;;
68484;SDS011;55472;50.060;21.960;2023-04-25T07:25:44;6.65;;;3.80;;
68484;SDS011;55472;50.060;21.960;2023-04-25T07:28:10;6.63;;;3.30;;
68484;SDS011;55472;50.060;21.960;2023-04-25T07:30:36;6.43;;;3.00;;
68484;SDS011;55472;50.060;21.960;2023-04-25T07:33:02;6.10;;;2.93;;
68484;SDS011;55472;50.060;21.960;2023-04-25T07:35:28;5.90;;;3.10;;
68484;SDS011;55472;50.060;21.960;2023-04-25T07:37:54;5.25;;;3.00;;
68484;SDS011;55472;50.060;21.960;2023-04-25T07:40:21;5.47;;;2.95;;
68484;SDS011;55472;50.060;21.960;2023-04-25T07:42:47;6.82;;;3.35;;
68484;SDS011;55472;50.060;21.960;2023-04-25T07:45:14;6.20;;;3.10;;
68484;SDS011;55472;50.060;21.960;2023-04-25T07:47:40;7.20;;;3.20;;
68484;SDS011;55472;50.060;21.960;2023-04-25T07:50:06;6.20;;;3.30;;
68484;SDS011;55472;50.060;21.960;2023-04-25T07:52:33;6.45;;;2.95;;
68484;SDS011;55472;50.060;21.960;2023-04-25T07:55:00;6.13;;;2.95;;
68484;SDS011;55472;50.060;21.960;2023-04-25T07:57:26;5.70;;;2.90;;
68484;SDS011;55472;50.060;21.960;2023-04-25T07:59:52;9.05;;;3.70;;
68484;SDS011;55472;50.060;21.960;2023-04-25T08:02:18;6.97;;;3.35;;
68484;SDS011;55472;50.060;21.960;2023-04-25T08:04:45;7.38;;;3.58;;
68484;SDS011;55472;50.060;21.960;2023-04-25T08:07:11;7.25;;;3.58;;
68484;SDS011;55472;50.060;21.960;2023-04-25T08:09:38;5.90;;;3.17;;
68484;SDS011;55472;50.060;21.960;2023-04-25T08:12:04;7.10;;;3.35;;
68484;SDS011;55472;50.060;21.960;2023-04-25T08:14:30;6.43;;;3.10;;
68484;SDS011;55472;50.060;21.960;2023-04-25T08:17:04;6.10;;;2.85;;
68484;SDS011;55472;50.060;21.960;2023-04-25T08:19:30;5.18;;;2.88;;
68484;SDS011;55472;50.060;21.960;2023-04-25T08:21:56;5.87;;;3.07;;
68484;SDS011;55472;50.060;21.960;2023-04-25T08:24:23;5.97;;;2.97;;
68484;SDS011;55472;50.060;21.960;2023-04-25T08:26:49;6.85;;;3.00;;
68484;SDS011;55472;50.060;21.960;2023-04-25T08:29:17;5.65;;;2.90;;
68484;SDS011;55472;50.060;21.960;2023-04-25T08:31:43;7.95;;;3.25;;
68484;SDS011;55472;50.060;21.960;2023-04-25T08:34:09;7.33;;;3.10;;
68484;SDS011;55472;50.060;21.960;2023-04-25T08:36:36;6.95;;;3.40;;
68484;SDS011;55472;50.060;21.960;2023-04-25T08:39:02;9.18;;;3.55;;
68484;SDS011;55472;50.060;21.960;2023-04-25T08:41:28;6.15;;;3.03;;
68484;SDS011;55472;50.060;21.960;2023-04-25T08:43:55;6.82;;;3.45;;
68484;SDS011;55472;50.060;21.960;2023-04-25T08:46:23;6.77;;;3.50;;
68484;SDS011;55472;50.060;21.960;2023-04-25T08:48:50;5.65;;;3.15;;
68484;SDS011;55472;50.060;21.960;2023-04-25T08:51:22;6.50;;;3.45;;
68484;SDS011;55472;50.060;21.960;2023-04-25T08:53:51;7.57;;;3.35;;
68484;SDS011;55472;50.060;21.960;2023-04-25T08:56:17;8.50;;;4.60;;
68484;SDS011;55472;50.060;21.960;2023-04-25T08:58:47;11.70;;;5.20;;
68484;SDS011;55472;50.060;21.960;2023-04-25T09:01:15;7.75;;;4.03;;
68484;SDS011;55472;50.060;21.960;2023-04-25T09:03:44;7.85;;;4.10;;
68484;SDS011;55472;50.060;21.960;2023-04-25T09:06:12;7.80;;;4.03;;
68484;SDS011;55472;50.060;21.960;2023-04-25T09:08:39;8.68;;;4.75;;
68484;SDS011;55472;50.060;21.960;2023-04-25T09:11:06;9.30;;;4.17;;
68484;SDS011;55472;50.060;21.960;2023-04-25T09:13:33;7.97;;;4.20;;
68484;SDS011;55472;50.060;21.960;2023-04-25T09:15:59;5.97;;;3.53;;
68484;SDS011;55472;50.060;21.960;2023-04-25T09:18:29;7.90;;;4.10;;
68484;SDS011;55472;50.060;21.960;2023-04-25T09:21:08;7.30;;;3.75;;
68484;SDS011;55472;50.060;21.960;2023-04-25T09:23:40;7.90;;;3.80;;
68484;SDS011;55472;50.060;21.960;2023-04-25T09:26:09;10.10;;;4.50;;
68484;SDS011;55472;50.060;21.960;2023-04-25T09:28:39;7.32;;;3.40;;
68484;SDS011;55472;50.060;21.960;2023-04-25T09:31:06;7.50;;;3.30;;
68484;SDS011;55472;50.060;21.960;2023-04-25T09:33:35;7.10;;;3.65;;
68484;SDS011;55472;50.060;21.960;2023-04-25T09:36:02;5.77;;;3.10;;
68484;SDS011;55472;50.060;21.960;2023-04-25T09:38:43;9.55;;;4.43;;
68484;SDS011;55472;50.060;21.960;2023-04-25T09:41:10;13.07;;;4.30;;
68484;SDS011;55472;50.060;21.960;2023-04-25T09:43:38;8.95;;;3.88;;
68484;SDS011;55472;50.060;21.960;2023-04-25T09:46:10;7.38;;;3.83;;
68484;SDS011;55472;50.060;21.960;2023-04-25T09:48:37;7.97;;;4.10;;
68484;SDS011;55472;50.060;21.960;2023-04-25T09:51:12;7.63;;;3.90;;
68484;SDS011;55472;50.060;21.960;2023-04-25T09:53:41;8.82;;;3.83;;
68484;SDS011;55472;50.060;21.960;2023-04-25T09:56:10;9.27;;;4.18;;
68484;SDS011;55472;50.060;21.960;2023-04-25T09:58:38;8.35;;;3.92;;
68484;SDS011;55472;50.060;21.960;2023-04-25T10:01:07;7.27;;;3.90;;
68484;SDS011;55472;50.060;21.960;2023-04-25T10:03:37;8.73;;;4.90;;
68484;SDS011;55472;50.060;21.960;2023-04-25T10:06:09;7.90;;;4.40;;
68484;SDS011;55472;50.060;21.960;2023-04-25T10:08:39;9.05;;;4.43;;
68484;SDS011;55472;50.060;21.960;2023-04-25T10:11:07;8.07;;;4.22;;
68484;SDS011;55472;50.060;21.960;2023-04-25T10:13:35;7.43;;;4.50;;
68484;SDS011;55472;50.060;21.960;2023-04-25T10:16:02;7.65;;;4.40;;
68484;SDS011;55472;50.060;21.960;2023-04-25T10:18:30;8.20;;;4.47;;
68484;SDS011;55472;50.060;21.960;2023-04-25T10:20:59;9.45;;;4.70;;
68484;SDS011;55472;50.060;21.960;2023-04-25T10:23:27;10.77;;;5.22;;
68484;SDS011;55472;50.060;21.960;2023-04-25T10:25:55;10.47;;;4.83;;
68484;SDS011;55472;50.060;21.960;2023-04-25T10:28:23;9.07;;;4.78;;
68484;SDS011;55472;50.060;21.960;2023-04-25T10:31:02;7.05;;;3.95;;
68484;SDS011;55472;50.060;21.960;2023-04-25T10:36:14;8.63;;;4.63;;
68484;SDS011;55472;50.060;21.960;2023-04-25T10:38:44;8.67;;;4.47;;
68484;SDS011;55472;50.060;21.960;2023-04-25T10:41:11;10.00;;;4.63;;
68484;SDS011;55472;50.060;21.960;2023-04-25T10:43:42;9.55;;;4.68;;
68484;SDS011;55472;50.060;21.960;2023-04-25T10:46:17;10.20;;;4.65;;
68484;SDS011;55472;50.060;21.960;2023-04-25T10:48:52;9.10;;;4.82;;
68484;SDS011;55472;50.060;21.960;2023-04-25T10:51:24;9.27;;;5.33;;
68484;SDS011;55472;50.060;21.960;2023-04-25T10:54:05;10.50;;;5.50;;
68484;SDS011;55472;50.060;21.960;2023-04-25T11:01:39;9.95;;;5.53;;
68484;SDS011;55472;50.060;21.960;2023-04-25T11:04:19;12.83;;;5.53;;
68484;SDS011;55472;50.060;21.960;2023-04-25T11:10:06;10.05;;;5.57;;
68484;SDS011;55472;50.060;21.960;2023-04-25T11:12:33;11.43;;;5.30;;
68484;SDS011;55472;50.060;21.960;2023-04-25T11:15:03;10.32;;;5.50;;
68484;SDS011;55472;50.060;21.960;2023-04-25T11:17:31;9.77;;;5.80;;
68484;SDS011;55472;50.060;21.960;2023-04-25T11:19:58;12.55;;;6.50;;
68484;SDS011;55472;50.060;21.960;2023-04-25T11:22:26;14.75;;;6.82;;
68484;SDS011;55472;50.060;21.960;2023-04-25T11:24:53;14.52;;;7.75;;
68484;SDS011;55472;50.060;21.960;2023-04-25T11:27:19;13.70;;;6.93;;
68484;SDS011;55472;50.060;21.960;2023-04-25T11:29:46;11.63;;;6.80;;
68484;SDS011;55472;50.060;21.960;2023-04-25T11:32:14;12.70;;;7.05;;
68484;SDS011;55472;50.060;21.960;2023-04-25T11:34:43;12.88;;;6.68;;
68484;SDS011;55472;50.060;21.960;2023-04-25T11:37:12;12.38;;;6.78;;
68484;SDS011;55472;50.060;21.960;2023-04-25T11:39:43;12.63;;;6.53;;
68484;SDS011;55472;50.060;21.960;2023-04-25T11:42:12;11.23;;;6.60;;
68484;SDS011;55472;50.060;21.960;2023-04-25T11:44:39;11.98;;;6.75;;
68484;SDS011;55472;50.060;21.960;2023-04-25T11:47:05;11.68;;;6.95;;
68484;SDS011;55472;50.060;21.960;2023-04-25T11:49:32;10.18;;;5.70;;
68484;SDS011;55472;50.060;21.960;2023-04-25T11:51:58;10.93;;;5.93;;
68484;SDS011;55472;50.060;21.960;2023-04-25T11:54:24;9.87;;;5.50;;
68484;SDS011;55472;50.060;21.960;2023-04-25T11:56:51;11.10;;;5.78;;
68484;SDS011;55472;50.060;21.960;2023-04-25T11:59:17;10.15;;;5.97;;
68484;SDS011;55472;50.060;21.960;2023-04-25T12:01:50;10.48;;;6.18;;
68484;SDS011;55472;50.060;21.960;2023-04-25T12:04:21;11.68;;;6.80;;
68484;SDS011;55472;50.060;21.960;2023-04-25T12:06:52;13.30;;;6.80;;
68484;SDS011;55472;50.060;21.960;2023-04-25T12:09:21;13.75;;;7.13;;
68484;SDS011;55472;50.060;21.960;2023-04-25T12:11:56;12.82;;;7.05;;
68484;SDS011;55472;50.060;21.960;2023-04-25T12:14:25;11.80;;;6.20;;
68484;SDS011;55472;50.060;21.960;2023-04-25T12:16:55;13.40;;;6.30;;
68484;SDS011;55472;50.060;21.960;2023-04-25T12:19:26;12.83;;;6.53;;
68484;SDS011;55472;50.060;21.960;2023-04-25T12:21:59;10.23;;;5.25;;
68484;SDS011;55472;50.060;21.960;2023-04-25T12:24:33;10.70;;;5.45;;
68484;SDS011;55472;50.060;21.960;2023-04-25T12:29:28;12.82;;;6.18;;
68484;SDS011;55472;50.060;21.960;2023-04-25T12:31:57;11.47;;;6.10;;
68484;SDS011;55472;50.060;21.960;2023-04-25T12:34:24;11.75;;;6.32;;
68484;SDS011;55472;50.060;21.960;2023-04-25T12:36:51;12.85;;;7.32;;
68484;SDS011;55472;50.060;21.960;2023-04-25T12:39:18;12.60;;;6.63;;
68484;SDS011;55472;50.060;21.960;2023-04-25T12:41:49;12.02;;;6.50;;
68484;SDS011;55472;50.060;21.960;2023-04-25T12:44:17;11.70;;;6.20;;
68484;SDS011;55472;50.060;21.960;2023-04-25T12:46:43;13.82;;;7.22;;
68484;SDS011;55472;50.060;21.960;2023-04-25T12:49:10;12.10;;;6.60;;
68484;SDS011;55472;50.060;21.960;2023-04-25T12:51:36;13.68;;;6.65;;
68484;SDS011;55472;50.060;21.960;2023-04-25T12:54:04;11.15;;;6.22;;
68484;SDS011;55472;50.060;21.960;2023-04-25T12:56:34;9.60;;;5.90;;
68484;SDS011;55472;50.060;21.960;2023-04-25T12:59:02;13.00;;;7.03;;
68484;SDS011;55472;50.060;21.960;2023-04-25T13:01:28;14.70;;;7.07;;
68484;SDS011;55472;50.060;21.960;2023-04-25T13:03:55;15.25;;;7.80;;
68484;SDS011;55472;50.060;21.960;2023-04-25T13:06:21;12.35;;;6.43;;
68484;SDS011;55472;50.060;21.960;2023-04-25T13:08:48;12.03;;;6.27;;
68484;SDS011;55472;50.060;21.960;2023-04-25T13:11:14;13.50;;;7.05;;
68484;SDS011;55472;50.060;21.960;2023-04-25T13:13:40;12.82;;;6.85;;
68484;SDS011;55472;50.060;21.960;2023-04-25T13:16:07;12.52;;;6.38;;
68484;SDS011;55472;50.060;21.960;2023-04-25T13:18:34;12.52;;;6.55;;
68484;SDS011;55472;50.060;21.960;2023-04-25T13:21:00;11.73;;;6.40;;
68484;SDS011;55472;50.060;21.960;2023-04-25T13:23:27;11.70;;;6.43;;
68484;SDS011;55472;50.060;21.960;2023-04-25T13:25:57;11.30;;;6.78;;
68484;SDS011;55472;50.060;21.960;2023-04-25T13:28:24;14.73;;;7.38;;
68484;SDS011;55472;50.060;21.960;2023-04-25T13:30:50;13.98;;;7.40;;
68484;SDS011;55472;50.060;21.960;2023-04-25T13:33:17;15.93;;;7.87;;
68484;SDS011;55472;50.060;21.960;2023-04-25T13:35:45;17.05;;;8.13;;
68484;SDS011;55472;50.060;21.960;2023-04-25T13:38:20;15.52;;;7.10;;
68484;SDS011;55472;50.060;21.960;2023-04-25T13:40:47;13.98;;;7.05;;
68484;SDS011;55472;50.060;21.960;2023-04-25T13:43:15;14.95;;;7.25;;
68484;SDS011;55472;50.060;21.960;2023-04-25T13:45:41;15.13;;;6.83;;
68484;SDS011;55472;50.060;21.960;2023-04-25T13:48:07;14.25;;;7.15;;
68484;SDS011;55472;50.060;21.960;2023-04-25T13:50:34;13.55;;;7.35;;
68484;SDS011;55472;50.060;21.960;2023-04-25T13:53:00;15.52;;;7.55;;
68484;SDS011;55472;50.060;21.960;2023-04-25T13:55:26;13.57;;;6.45;;
68484;SDS011;55472;50.060;21.960;2023-04-25T13:57:53;20.17;;;9.40;;
68484;SDS011;55472;50.060;21.960;2023-04-25T14:00:19;23.58;;;9.90;;
68484;SDS011;55472;50.060;21.960;2023-04-25T14:02:45;23.73;;;11.07;;
68484;SDS011;55472;50.060;21.960;2023-04-25T14:05:11;26.92;;;12.68;;
68484;SDS011;55472;50.060;21.960;2023-04-25T14:07:38;23.70;;;12.25;;
68484;SDS011;55472;50.060;21.960;2023-04-25T14:10:04;29.48;;;13.40;;
68484;SDS011;55472;50.060;21.960;2023-04-25T14:12:32;39.90;;;19.17;;
68484;SDS011;55472;50.060;21.960;2023-04-25T14:14:58;26.17;;;11.95;;
68484;SDS011;55472;50.060;21.960;2023-04-25T14:17:24;26.77;;;13.88;;
68484;SDS011;55472;50.060;21.960;2023-04-25T14:19:51;20.23;;;10.70;;
68484;SDS011;55472;50.060;21.960;2023-04-25T14:22:17;16.95;;;9.05;;
68484;SDS011;55472;50.060;21.960;2023-04-25T14:24:44;14.52;;;7.55;;
68484;SDS011;55472;50.060;21.960;2023-04-25T14:27:10;14.48;;;7.20;;
68484;SDS011;55472;50.060;21.960;2023-04-25T14:29:36;13.15;;;6.90;;
68484;SDS011;55472;50.060;21.960;2023-04-25T14:32:02;14.25;;;6.45;;
68484;SDS011;55472;50.060;21.960;2023-04-25T14:34:30;12.80;;;5.85;;
68484;SDS011;55472;50.060;21.960;2023-04-25T14:36:56;13.30;;;5.97;;
68484;SDS011;55472;50.060;21.960;2023-04-25T14:39:22;9.07;;;4.80;;